Helmville, Montana
Current Conditions -  °F | °C
As of 1:53 PM on Tuesday 21 Oct 2014 (Local Time) from KHLN Reporting Station
Light Rain Light Rain  
Wind Chill: 42°   Ceiling: 6000
Heat Index: 47°   Visibility: 10mi
Dew Point: 38°   Wind: 12mph
Humidity: 71%   Direction: 270°W
Pressure: 29.8"   Gusts: 24mph
Location:  46.87°N, 112.96°W
Report Text: KHLN 211953Z 27010G21KT 10SM -RA OVC060 08/03 A2980 RMK AO2 PK WND 27030/1857 RAE1855B38 SLP103 P0000 T00830033
Loading
Personal Weather Stations






























Interactive Weather Map New forecast layout! Learn more

10-Day Weather Forecast

Advertisements
Track Severe Weather on mobile